sensor_id;sensor_type;location;lat;lon;timestamp;P1;durP1;ratioP1;P2;durP2;ratioP2
70138;SDS011;57507;43.056;0.150;2022-07-22T00:01:00;6.18;;;4.10;;
70138;SDS011;57507;43.056;0.150;2022-07-22T00:03:26;7.55;;;4.10;;
70138;SDS011;57507;43.056;0.150;2022-07-22T00:05:52;4.68;;;3.97;;
70138;SDS011;57507;43.056;0.150;2022-07-22T00:08:18;5.53;;;3.85;;
70138;SDS011;57507;43.056;0.150;2022-07-22T00:10:44;5.35;;;3.55;;
70138;SDS011;57507;43.056;0.150;2022-07-22T00:13:10;7.90;;;3.83;;
70138;SDS011;57507;43.056;0.150;2022-07-22T00:15:36;6.43;;;4.38;;
70138;SDS011;57507;43.056;0.150;2022-07-22T00:18:02;4.80;;;3.65;;
70138;SDS011;57507;43.056;0.150;2022-07-22T00:20:28;5.25;;;3.85;;
70138;SDS011;57507;43.056;0.150;2022-07-22T00:22:54;5.68;;;3.88;;
70138;SDS011;57507;43.056;0.150;2022-07-22T00:25:20;6.40;;;3.80;;
70138;SDS011;57507;43.056;0.150;2022-07-22T00:27:47;4.53;;;3.85;;
70138;SDS011;57507;43.056;0.150;2022-07-22T00:30:13;5.30;;;3.85;;
70138;SDS011;57507;43.056;0.150;2022-07-22T00:32:39;5.65;;;4.00;;
70138;SDS011;57507;43.056;0.150;2022-07-22T00:35:05;5.97;;;3.40;;
70138;SDS011;57507;43.056;0.150;2022-07-22T00:37:31;6.90;;;4.25;;
70138;SDS011;57507;43.056;0.150;2022-07-22T00:39:57;5.35;;;4.05;;
70138;SDS011;57507;43.056;0.150;2022-07-22T00:42:23;5.30;;;3.67;;
70138;SDS011;57507;43.056;0.150;2022-07-22T00:44:49;5.20;;;4.25;;
70138;SDS011;57507;43.056;0.150;2022-07-22T00:47:15;6.50;;;3.60;;
70138;SDS011;57507;43.056;0.150;2022-07-22T00:49:41;4.40;;;3.45;;
70138;SDS011;57507;43.056;0.150;2022-07-22T00:52:07;6.65;;;4.20;;
70138;SDS011;57507;43.056;0.150;2022-07-22T00:54:33;4.85;;;3.47;;
70138;SDS011;57507;43.056;0.150;2022-07-22T00:57:02;5.28;;;3.90;;
70138;SDS011;57507;43.056;0.150;2022-07-22T00:59:28;4.80;;;3.70;;
70138;SDS011;57507;43.056;0.150;2022-07-22T01:01:54;4.43;;;3.78;;
70138;SDS011;57507;43.056;0.150;2022-07-22T01:04:20;5.18;;;3.63;;
70138;SDS011;57507;43.056;0.150;2022-07-22T01:06:46;5.85;;;3.72;;
70138;SDS011;57507;43.056;0.150;2022-07-22T01:09:13;5.45;;;3.65;;
70138;SDS011;57507;43.056;0.150;2022-07-22T01:11:39;5.68;;;3.85;;
70138;SDS011;57507;43.056;0.150;2022-07-22T01:14:05;4.80;;;3.78;;
70138;SDS011;57507;43.056;0.150;2022-07-22T01:16:31;5.43;;;3.83;;
70138;SDS011;57507;43.056;0.150;2022-07-22T01:18:57;4.30;;;3.45;;
70138;SDS011;57507;43.056;0.150;2022-07-22T01:21:24;4.45;;;3.55;;
70138;SDS011;57507;43.056;0.150;2022-07-22T01:23:50;4.55;;;3.88;;
70138;SDS011;57507;43.056;0.150;2022-07-22T01:26:16;3.90;;;3.33;;
70138;SDS011;57507;43.056;0.150;2022-07-22T01:28:42;3.83;;;3.33;;
70138;SDS011;57507;43.056;0.150;2022-07-22T01:31:09;7.05;;;3.90;;
70138;SDS011;57507;43.056;0.150;2022-07-22T01:33:35;5.90;;;3.85;;
70138;SDS011;57507;43.056;0.150;2022-07-22T01:36:01;7.03;;;3.70;;
70138;SDS011;57507;43.056;0.150;2022-07-22T01:38:27;4.55;;;3.60;;
70138;SDS011;57507;43.056;0.150;2022-07-22T01:40:54;5.38;;;3.88;;
70138;SDS011;57507;43.056;0.150;2022-07-22T01:43:20;5.65;;;3.75;;
70138;SDS011;57507;43.056;0.150;2022-07-22T01:45:47;5.43;;;3.53;;
70138;SDS011;57507;43.056;0.150;2022-07-22T01:48:13;5.13;;;3.75;;
70138;SDS011;57507;43.056;0.150;2022-07-22T01:50:40;4.65;;;3.15;;
70138;SDS011;57507;43.056;0.150;2022-07-22T01:53:06;4.53;;;3.47;;
70138;SDS011;57507;43.056;0.150;2022-07-22T01:55:32;5.68;;;3.83;;
70138;SDS011;57507;43.056;0.150;2022-07-22T01:57:58;5.38;;;3.75;;
70138;SDS011;57507;43.056;0.150;2022-07-22T02:00:24;5.30;;;3.70;;
70138;SDS011;57507;43.056;0.150;2022-07-22T02:02:51;4.00;;;3.30;;
70138;SDS011;57507;43.056;0.150;2022-07-22T02:05:17;4.68;;;3.45;;
70138;SDS011;57507;43.056;0.150;2022-07-22T02:07:43;4.82;;;3.63;;
70138;SDS011;57507;43.056;0.150;2022-07-22T02:10:09;4.13;;;3.55;;
70138;SDS011;57507;43.056;0.150;2022-07-22T02:12:35;5.32;;;3.95;;
70138;SDS011;57507;43.056;0.150;2022-07-22T02:15:01;4.82;;;3.63;;
70138;SDS011;57507;43.056;0.150;2022-07-22T02:17:27;5.18;;;3.60;;
70138;SDS011;57507;43.056;0.150;2022-07-22T02:19:53;5.35;;;3.33;;
70138;SDS011;57507;43.056;0.150;2022-07-22T02:22:20;4.53;;;3.58;;
70138;SDS011;57507;43.056;0.150;2022-07-22T02:24:46;6.63;;;3.78;;
70138;SDS011;57507;43.056;0.150;2022-07-22T02:27:12;4.80;;;3.60;;
70138;SDS011;57507;43.056;0.150;2022-07-22T02:29:38;6.28;;;3.67;;
70138;SDS011;57507;43.056;0.150;2022-07-22T02:32:04;4.65;;;3.50;;
70138;SDS011;57507;43.056;0.150;2022-07-22T02:34:30;5.18;;;3.63;;
70138;SDS011;57507;43.056;0.150;2022-07-22T02:36:56;4.82;;;3.90;;
70138;SDS011;57507;43.056;0.150;2022-07-22T02:39:22;6.70;;;3.38;;
70138;SDS011;57507;43.056;0.150;2022-07-22T02:41:48;5.00;;;3.42;;
70138;SDS011;57507;43.056;0.150;2022-07-22T02:44:14;7.38;;;3.90;;
70138;SDS011;57507;43.056;0.150;2022-07-22T02:46:40;5.85;;;3.55;;
70138;SDS011;57507;43.056;0.150;2022-07-22T02:49:06;4.70;;;3.35;;
70138;SDS011;57507;43.056;0.150;2022-07-22T02:51:32;7.07;;;4.07;;
70138;SDS011;57507;43.056;0.150;2022-07-22T02:53:58;5.22;;;3.53;;
70138;SDS011;57507;43.056;0.150;2022-07-22T02:56:24;6.05;;;3.65;;
70138;SDS011;57507;43.056;0.150;2022-07-22T02:58:50;5.72;;;3.58;;
70138;SDS011;57507;43.056;0.150;2022-07-22T03:01:18;3.85;;;3.45;;
70138;SDS011;57507;43.056;0.150;2022-07-22T03:03:44;6.43;;;3.35;;
70138;SDS011;57507;43.056;0.150;2022-07-22T03:06:11;7.30;;;3.60;;
70138;SDS011;57507;43.056;0.150;2022-07-22T03:08:37;5.05;;;3.70;;
70138;SDS011;57507;43.056;0.150;2022-07-22T03:11:04;4.50;;;3.22;;
70138;SDS011;57507;43.056;0.150;2022-07-22T03:13:30;5.70;;;3.53;;
70138;SDS011;57507;43.056;0.150;2022-07-22T03:15:56;5.90;;;3.70;;
70138;SDS011;57507;43.056;0.150;2022-07-22T03:18:22;5.55;;;3.45;;
70138;SDS011;57507;43.056;0.150;2022-07-22T03:20:48;4.45;;;3.58;;
70138;SDS011;57507;43.056;0.150;2022-07-22T03:23:14;4.63;;;3.50;;
70138;SDS011;57507;43.056;0.150;2022-07-22T03:25:40;4.85;;;3.60;;
70138;SDS011;57507;43.056;0.150;2022-07-22T03:28:06;4.43;;;3.40;;
70138;SDS011;57507;43.056;0.150;2022-07-22T03:30:33;6.07;;;3.65;;
70138;SDS011;57507;43.056;0.150;2022-07-22T03:32:59;5.07;;;3.92;;
70138;SDS011;57507;43.056;0.150;2022-07-22T03:35:25;5.32;;;3.40;;
70138;SDS011;57507;43.056;0.150;2022-07-22T03:37:51;5.97;;;3.97;;
70138;SDS011;57507;43.056;0.150;2022-07-22T03:40:17;6.28;;;3.78;;
70138;SDS011;57507;43.056;0.150;2022-07-22T03:42:43;4.15;;;3.30;;
70138;SDS011;57507;43.056;0.150;2022-07-22T03:45:09;5.95;;;3.63;;
70138;SDS011;57507;43.056;0.150;2022-07-22T03:47:36;6.60;;;3.58;;
70138;SDS011;57507;43.056;0.150;2022-07-22T03:50:02;5.53;;;3.55;;
70138;SDS011;57507;43.056;0.150;2022-07-22T03:52:28;6.22;;;3.55;;
70138;SDS011;57507;43.056;0.150;2022-07-22T03:54:54;6.75;;;3.92;;
70138;SDS011;57507;43.056;0.150;2022-07-22T03:57:20;5.65;;;3.25;;
70138;SDS011;57507;43.056;0.150;2022-07-22T03:59:47;5.80;;;3.22;;
70138;SDS011;57507;43.056;0.150;2022-07-22T04:02:13;6.18;;;4.05;;
70138;SDS011;57507;43.056;0.150;2022-07-22T04:04:39;8.52;;;4.22;;
70138;SDS011;57507;43.056;0.150;2022-07-22T04:07:05;8.05;;;4.75;;
70138;SDS011;57507;43.056;0.150;2022-07-22T04:09:31;6.60;;;3.92;;
70138;SDS011;57507;43.056;0.150;2022-07-22T04:11:57;7.18;;;4.15;;
70138;SDS011;57507;43.056;0.150;2022-07-22T04:14:24;5.78;;;4.65;;
70138;SDS011;57507;43.056;0.150;2022-07-22T04:16:50;9.48;;;5.43;;
70138;SDS011;57507;43.056;0.150;2022-07-22T04:19:16;6.97;;;4.65;;
70138;SDS011;57507;43.056;0.150;2022-07-22T04:21:42;9.38;;;5.85;;
70138;SDS011;57507;43.056;0.150;2022-07-22T04:24:08;5.85;;;3.67;;
70138;SDS011;57507;43.056;0.150;2022-07-22T04:26:34;8.90;;;4.93;;
70138;SDS011;57507;43.056;0.150;2022-07-22T04:29:01;8.95;;;4.82;;
70138;SDS011;57507;43.056;0.150;2022-07-22T04:31:27;7.15;;;4.53;;
70138;SDS011;57507;43.056;0.150;2022-07-22T04:33:53;7.32;;;4.82;;
70138;SDS011;57507;43.056;0.150;2022-07-22T04:36:19;9.63;;;4.35;;
70138;SDS011;57507;43.056;0.150;2022-07-22T04:38:45;7.97;;;4.45;;
70138;SDS011;57507;43.056;0.150;2022-07-22T04:41:12;9.60;;;5.40;;
70138;SDS011;57507;43.056;0.150;2022-07-22T04:43:38;6.72;;;4.57;;
70138;SDS011;57507;43.056;0.150;2022-07-22T04:46:04;6.80;;;4.78;;
70138;SDS011;57507;43.056;0.150;2022-07-22T04:48:30;5.10;;;4.00;;
70138;SDS011;57507;43.056;0.150;2022-07-22T04:50:59;9.38;;;4.85;;
70138;SDS011;57507;43.056;0.150;2022-07-22T04:53:26;6.75;;;4.25;;
70138;SDS011;57507;43.056;0.150;2022-07-22T04:55:52;6.00;;;3.97;;
70138;SDS011;57507;43.056;0.150;2022-07-22T04:58:18;6.55;;;4.35;;
70138;SDS011;57507;43.056;0.150;2022-07-22T05:00:44;6.57;;;4.25;;
70138;SDS011;57507;43.056;0.150;2022-07-22T05:03:11;8.85;;;5.10;;
70138;SDS011;57507;43.056;0.150;2022-07-22T05:05:38;5.95;;;3.90;;
70138;SDS011;57507;43.056;0.150;2022-07-22T05:08:04;4.90;;;3.63;;
70138;SDS011;57507;43.056;0.150;2022-07-22T05:10:30;7.15;;;3.92;;
70138;SDS011;57507;43.056;0.150;2022-07-22T05:12:57;6.07;;;4.03;;
70138;SDS011;57507;43.056;0.150;2022-07-22T05:15:23;7.75;;;4.57;;
70138;SDS011;57507;43.056;0.150;2022-07-22T05:17:49;7.90;;;5.05;;
70138;SDS011;57507;43.056;0.150;2022-07-22T05:20:16;5.03;;;3.63;;
70138;SDS011;57507;43.056;0.150;2022-07-22T05:22:42;8.77;;;4.40;;
70138;SDS011;57507;43.056;0.150;2022-07-22T05:25:08;8.23;;;4.75;;
70138;SDS011;57507;43.056;0.150;2022-07-22T05:27:34;5.80;;;4.15;;
70138;SDS011;57507;43.056;0.150;2022-07-22T05:30:00;6.03;;;4.30;;
70138;SDS011;57507;43.056;0.150;2022-07-22T05:32:26;9.75;;;4.60;;
70138;SDS011;57507;43.056;0.150;2022-07-22T05:34:53;10.02;;;5.32;;
70138;SDS011;57507;43.056;0.150;2022-07-22T05:37:19;7.00;;;5.32;;
70138;SDS011;57507;43.056;0.150;2022-07-22T05:39:45;6.68;;;4.20;;
70138;SDS011;57507;43.056;0.150;2022-07-22T05:42:11;7.45;;;4.20;;
70138;SDS011;57507;43.056;0.150;2022-07-22T05:44:37;6.13;;;4.25;;
70138;SDS011;57507;43.056;0.150;2022-07-22T05:47:03;8.70;;;4.55;;
70138;SDS011;57507;43.056;0.150;2022-07-22T05:49:29;6.15;;;4.22;;
70138;SDS011;57507;43.056;0.150;2022-07-22T05:51:55;8.82;;;4.35;;
70138;SDS011;57507;43.056;0.150;2022-07-22T05:54:25;5.85;;;4.47;;
70138;SDS011;57507;43.056;0.150;2022-07-22T05:56:51;6.45;;;3.88;;
70138;SDS011;57507;43.056;0.150;2022-07-22T05:59:17;6.78;;;3.85;;
70138;SDS011;57507;43.056;0.150;2022-07-22T06:01:43;6.43;;;4.53;;
70138;SDS011;57507;43.056;0.150;2022-07-22T06:04:09;6.78;;;4.57;;
70138;SDS011;57507;43.056;0.150;2022-07-22T06:06:35;7.80;;;5.10;;
70138;SDS011;57507;43.056;0.150;2022-07-22T06:09:01;8.52;;;4.40;;
70138;SDS011;57507;43.056;0.150;2022-07-22T06:11:27;6.72;;;4.55;;
70138;SDS011;57507;43.056;0.150;2022-07-22T06:13:53;6.32;;;3.90;;
70138;SDS011;57507;43.056;0.150;2022-07-22T06:16:19;6.15;;;4.32;;
70138;SDS011;57507;43.056;0.150;2022-07-22T06:18:45;5.80;;;4.03;;
70138;SDS011;57507;43.056;0.150;2022-07-22T06:21:11;6.22;;;4.32;;
70138;SDS011;57507;43.056;0.150;2022-07-22T06:23:37;7.07;;;4.30;;
70138;SDS011;57507;43.056;0.150;2022-07-22T06:26:03;4.28;;;3.80;;
70138;SDS011;57507;43.056;0.150;2022-07-22T06:28:29;6.40;;;4.13;;
70138;SDS011;57507;43.056;0.150;2022-07-22T06:30:55;5.88;;;3.50;;
70138;SDS011;57507;43.056;0.150;2022-07-22T06:33:21;7.03;;;4.05;;
70138;SDS011;57507;43.056;0.150;2022-07-22T06:35:47;5.78;;;3.90;;
70138;SDS011;57507;43.056;0.150;2022-07-22T06:38:13;6.93;;;4.07;;
70138;SDS011;57507;43.056;0.150;2022-07-22T06:40:39;7.78;;;4.15;;
70138;SDS011;57507;43.056;0.150;2022-07-22T06:43:05;6.82;;;4.72;;
70138;SDS011;57507;43.056;0.150;2022-07-22T06:45:31;6.00;;;3.95;;
70138;SDS011;57507;43.056;0.150;2022-07-22T06:47:57;7.22;;;4.15;;
70138;SDS011;57507;43.056;0.150;2022-07-22T06:50:23;4.95;;;4.13;;
70138;SDS011;57507;43.056;0.150;2022-07-22T06:52:50;5.13;;;3.72;;
70138;SDS011;57507;43.056;0.150;2022-07-22T06:55:16;6.15;;;4.07;;
70138;SDS011;57507;43.056;0.150;2022-07-22T06:57:42;4.80;;;3.50;;
70138;SDS011;57507;43.056;0.150;2022-07-22T07:00:08;4.95;;;3.63;;
70138;SDS011;57507;43.056;0.150;2022-07-22T07:02:34;5.15;;;3.90;;
70138;SDS011;57507;43.056;0.150;2022-07-22T07:05:01;6.25;;;4.10;;
70138;SDS011;57507;43.056;0.150;2022-07-22T07:07:27;5.43;;;3.85;;
70138;SDS011;57507;43.056;0.150;2022-07-22T07:09:53;6.43;;;4.32;;
70138;SDS011;57507;43.056;0.150;2022-07-22T07:12:19;6.32;;;4.18;;
70138;SDS011;57507;43.056;0.150;2022-07-22T07:14:45;6.10;;;3.90;;
70138;SDS011;57507;43.056;0.150;2022-07-22T07:17:11;5.65;;;3.75;;
70138;SDS011;57507;43.056;0.150;2022-07-22T07:19:37;5.38;;;4.13;;
70138;SDS011;57507;43.056;0.150;2022-07-22T07:22:03;5.88;;;4.18;;
70138;SDS011;57507;43.056;0.150;2022-07-22T07:24:29;8.35;;;5.05;;
70138;SDS011;57507;43.056;0.150;2022-07-22T07:26:55;6.35;;;4.20;;
70138;SDS011;57507;43.056;0.150;2022-07-22T07:29:21;6.28;;;4.10;;
70138;SDS011;57507;43.056;0.150;2022-07-22T07:31:48;7.20;;;4.05;;
70138;SDS011;57507;43.056;0.150;2022-07-22T07:34:14;5.57;;;3.88;;
70138;SDS011;57507;43.056;0.150;2022-07-22T07:36:40;5.82;;;4.15;;
70138;SDS011;57507;43.056;0.150;2022-07-22T07:39:06;5.65;;;3.88;;
70138;SDS011;57507;43.056;0.150;2022-07-22T07:41:32;4.38;;;3.78;;
70138;SDS011;57507;43.056;0.150;2022-07-22T07:43:58;4.40;;;3.90;;
70138;SDS011;57507;43.056;0.150;2022-07-22T07:46:25;3.35;;;2.53;;
70138;SDS011;57507;43.056;0.150;2022-07-22T07:48:51;3.80;;;2.50;;
70138;SDS011;57507;43.056;0.150;2022-07-22T07:51:17;3.53;;;2.40;;
70138;SDS011;57507;43.056;0.150;2022-07-22T07:53:43;2.45;;;1.80;;
70138;SDS011;57507;43.056;0.150;2022-07-22T07:56:09;2.75;;;1.90;;
70138;SDS011;57507;43.056;0.150;2022-07-22T07:58:35;2.22;;;2.00;;
70138;SDS011;57507;43.056;0.150;2022-07-22T08:01:01;1.98;;;1.63;;
70138;SDS011;57507;43.056;0.150;2022-07-22T08:03:27;2.00;;;1.70;;
70138;SDS011;57507;43.056;0.150;2022-07-22T08:05:53;1.85;;;1.70;;
70138;SDS011;57507;43.056;0.150;2022-07-22T08:08:19;1.98;;;1.75;;
70138;SDS011;57507;43.056;0.150;2022-07-22T08:10:45;2.15;;;1.80;;
70138;SDS011;57507;43.056;0.150;2022-07-22T08:13:11;2.13;;;1.73;;
70138;SDS011;57507;43.056;0.150;2022-07-22T08:15:37;2.03;;;1.70;;
70138;SDS011;57507;43.056;0.150;2022-07-22T08:18:03;1.95;;;1.60;;
70138;SDS011;57507;43.056;0.150;2022-07-22T08:20:30;2.55;;;1.30;;
70138;SDS011;57507;43.056;0.150;2022-07-22T08:22:56;2.30;;;1.60;;
70138;SDS011;57507;43.056;0.150;2022-07-22T08:25:22;1.58;;;1.33;;
70138;SDS011;57507;43.056;0.150;2022-07-22T08:27:48;1.98;;;1.38;;
70138;SDS011;57507;43.056;0.150;2022-07-22T08:30:14;2.45;;;1.73;;
70138;SDS011;57507;43.056;0.150;2022-07-22T08:32:41;1.92;;;1.73;;
70138;SDS011;57507;43.056;0.150;2022-07-22T08:35:07;1.92;;;1.42;;
70138;SDS011;57507;43.056;0.150;2022-07-22T08:37:34;1.85;;;1.48;;
70138;SDS011;57507;43.056;0.150;2022-07-22T08:40:00;2.35;;;1.50;;
70138;SDS011;57507;43.056;0.150;2022-07-22T08:42:26;1.77;;;1.30;;
70138;SDS011;57507;43.056;0.150;2022-07-22T08:44:53;2.45;;;1.70;;
70138;SDS011;57507;43.056;0.150;2022-07-22T08:47:22;2.35;;;1.70;;
70138;SDS011;57507;43.056;0.150;2022-07-22T08:49:49;3.72;;;1.27;;
70138;SDS011;57507;43.056;0.150;2022-07-22T08:52:15;2.33;;;1.48;;
70138;SDS011;57507;43.056;0.150;2022-07-22T08:54:41;2.40;;;1.70;;
70138;SDS011;57507;43.056;0.150;2022-07-22T08:57:07;1.52;;;1.42;;
70138;SDS011;57507;43.056;0.150;2022-07-22T08:59:33;1.50;;;1.40;;
70138;SDS011;57507;43.056;0.150;2022-07-22T09:02:13;2.25;;;1.50;;
70138;SDS011;57507;43.056;0.150;2022-07-22T09:04:53;1.70;;;1.33;;
70138;SDS011;57507;43.056;0.150;2022-07-22T09:07:26;2.28;;;1.52;;
70138;SDS011;57507;43.056;0.150;2022-07-22T09:09:52;2.42;;;1.45;;
70138;SDS011;57507;43.056;0.150;2022-07-22T09:12:18;1.83;;;1.45;;
70138;SDS011;57507;43.056;0.150;2022-07-22T09:14:48;2.55;;;1.67;;
70138;SDS011;57507;43.056;0.150;2022-07-22T09:17:24;3.70;;;1.75;;
70138;SDS011;57507;43.056;0.150;2022-07-22T09:19:50;2.38;;;1.80;;
70138;SDS011;57507;43.056;0.150;2022-07-22T09:27:46;2.78;;;2.03;;
70138;SDS011;57507;43.056;0.150;2022-07-22T09:30:13;2.65;;;1.45;;
70138;SDS011;57507;43.056;0.150;2022-07-22T09:32:40;2.72;;;1.77;;
70138;SDS011;57507;43.056;0.150;2022-07-22T09:35:06;1.88;;;1.67;;
70138;SDS011;57507;43.056;0.150;2022-07-22T09:37:33;2.75;;;1.83;;
70138;SDS011;57507;43.056;0.150;2022-07-22T09:40:14;2.40;;;1.85;;
70138;SDS011;57507;43.056;0.150;2022-07-22T09:42:48;3.03;;;2.03;;
70138;SDS011;57507;43.056;0.150;2022-07-22T09:45:15;2.75;;;2.08;;
70138;SDS011;57507;43.056;0.150;2022-07-22T09:47:42;6.10;;;2.00;;
70138;SDS011;57507;43.056;0.150;2022-07-22T09:50:18;2.63;;;1.85;;
70138;SDS011;57507;43.056;0.150;2022-07-22T09:52:44;2.45;;;1.58;;
70138;SDS011;57507;43.056;0.150;2022-07-22T09:55:12;4.68;;;2.67;;
70138;SDS011;57507;43.056;0.150;2022-07-22T09:57:38;2.63;;;2.00;;
70138;SDS011;57507;43.056;0.150;2022-07-22T10:00:05;2.80;;;2.10;;
70138;SDS011;57507;43.056;0.150;2022-07-22T10:02:33;2.75;;;2.03;;
70138;SDS011;57507;43.056;0.150;2022-07-22T10:05:02;1.80;;;1.65;;
70138;SDS011;57507;43.056;0.150;2022-07-22T10:07:29;2.72;;;1.85;;
70138;SDS011;57507;43.056;0.150;2022-07-22T10:09:55;2.80;;;1.60;;
70138;SDS011;57507;43.056;0.150;2022-07-22T10:12:21;1.98;;;1.67;;
70138;SDS011;57507;43.056;0.150;2022-07-22T10:14:48;2.15;;;1.80;;
70138;SDS011;57507;43.056;0.150;2022-07-22T10:17:14;2.58;;;1.80;;
70138;SDS011;57507;43.056;0.150;2022-07-22T10:19:40;2.75;;;1.55;;
70138;SDS011;57507;43.056;0.150;2022-07-22T10:22:44;1.52;;;1.42;;
70138;SDS011;57507;43.056;0.150;2022-07-22T10:25:01;1.92;;;1.40;;
70138;SDS011;57507;43.056;0.150;2022-07-22T10:28:02;1.70;;;1.60;;
70138;SDS011;57507;43.056;0.150;2022-07-22T10:33:05;2.13;;;1.38;;
70138;SDS011;57507;43.056;0.150;2022-07-22T10:35:32;2.00;;;1.60;;
70138;SDS011;57507;43.056;0.150;2022-07-22T10:37:59;1.98;;;1.30;;
70138;SDS011;57507;43.056;0.150;2022-07-22T10:40:30;2.13;;;1.30;;
70138;SDS011;57507;43.056;0.150;2022-07-22T10:47:53;2.17;;;1.67;;
70138;SDS011;57507;43.056;0.150;2022-07-22T10:53:00;2.63;;;1.75;;
70138;SDS011;57507;43.056;0.150;2022-07-22T10:55:26;1.90;;;1.55;;
70138;SDS011;57507;43.056;0.150;2022-07-22T10:57:53;1.88;;;1.38;;
70138;SDS011;57507;43.056;0.150;2022-07-22T11:00:19;2.10;;;1.90;;
70138;SDS011;57507;43.056;0.150;2022-07-22T11:02:45;1.98;;;1.30;;
70138;SDS011;57507;43.056;0.150;2022-07-22T11:05:11;1.48;;;1.38;;
70138;SDS011;57507;43.056;0.150;2022-07-22T11:07:41;1.50;;;1.40;;
70138;SDS011;57507;43.056;0.150;2022-07-22T11:10:08;1.80;;;1.58;;
70138;SDS011;57507;43.056;0.150;2022-07-22T11:12:34;1.52;;;1.42;;
70138;SDS011;57507;43.056;0.150;2022-07-22T11:15:01;1.73;;;1.27;;
70138;SDS011;57507;43.056;0.150;2022-07-22T11:17:27;1.50;;;1.35;;
70138;SDS011;57507;43.056;0.150;2022-07-22T11:19:53;4.30;;;1.70;;
70138;SDS011;57507;43.056;0.150;2022-07-22T11:22:19;5.32;;;1.55;;
70138;SDS011;57507;43.056;0.150;2022-07-22T11:24:47;1.55;;;1.30;;
70138;SDS011;57507;43.056;0.150;2022-07-22T11:27:16;1.35;;;1.25;;
70138;SDS011;57507;43.056;0.150;2022-07-22T11:29:42;1.50;;;1.40;;
70138;SDS011;57507;43.056;0.150;2022-07-22T11:32:11;1.55;;;1.45;;
70138;SDS011;57507;43.056;0.150;2022-07-22T11:34:39;1.33;;;1.23;;
70138;SDS011;57507;43.056;0.150;2022-07-22T11:37:10;2.78;;;1.50;;
70138;SDS011;57507;43.056;0.150;2022-07-22T11:39:37;1.98;;;1.45;;
70138;SDS011;57507;43.056;0.150;2022-07-22T11:42:03;1.45;;;1.35;;
70138;SDS011;57507;43.056;0.150;2022-07-22T11:44:30;2.22;;;1.20;;
70138;SDS011;57507;43.056;0.150;2022-07-22T11:46:57;1.55;;;1.42;;
70138;SDS011;57507;43.056;0.150;2022-07-22T11:49:27;1.98;;;1.27;;
70138;SDS011;57507;43.056;0.150;2022-07-22T11:51:53;1.45;;;1.30;;
70138;SDS011;57507;43.056;0.150;2022-07-22T11:54:20;1.38;;;1.23;;
70138;SDS011;57507;43.056;0.150;2022-07-22T11:56:46;1.10;;;1.00;;
70138;SDS011;57507;43.056;0.150;2022-07-22T11:59:12;1.30;;;1.20;;
70138;SDS011;57507;43.056;0.150;2022-07-22T12:01:39;1.27;;;1.17;;
70138;SDS011;57507;43.056;0.150;2022-07-22T12:04:09;1.23;;;1.13;;
70138;SDS011;57507;43.056;0.150;2022-07-22T12:06:37;1.63;;;1.17;;
70138;SDS011;57507;43.056;0.150;2022-07-22T12:09:11;0.90;;;0.88;;
70138;SDS011;57507;43.056;0.150;2022-07-22T12:11:42;1.10;;;1.00;;
70138;SDS011;57507;43.056;0.150;2022-07-22T12:14:14;1.50;;;0.93;;
70138;SDS011;57507;43.056;0.150;2022-07-22T12:16:41;1.00;;;0.90;;
70138;SDS011;57507;43.056;0.150;2022-07-22T12:19:09;1.10;;;1.00;;
70138;SDS011;57507;43.056;0.150;2022-07-22T12:21:36;1.60;;;1.00;;
70138;SDS011;57507;43.056;0.150;2022-07-22T12:24:04;1.27;;;0.98;;
70138;SDS011;57507;43.056;0.150;2022-07-22T12:26:46;1.00;;;0.90;;
70138;SDS011;57507;43.056;0.150;2022-07-22T12:31:42;1.05;;;0.90;;
70138;SDS011;57507;43.056;0.150;2022-07-22T12:34:09;1.23;;;0.80;;
70138;SDS011;57507;43.056;0.150;2022-07-22T12:36:35;2.22;;;0.90;;
70138;SDS011;57507;43.056;0.150;2022-07-22T12:39:11;1.35;;;0.80;;
70138;SDS011;57507;43.056;0.150;2022-07-22T12:41:43;0.98;;;0.90;;
70138;SDS011;57507;43.056;0.150;2022-07-22T12:44:14;1.37;;;0.87;;
70138;SDS011;57507;43.056;0.150;2022-07-22T12:46:44;0.70;;;0.70;;
70138;SDS011;57507;43.056;0.150;2022-07-22T12:49:10;1.13;;;0.90;;
70138;SDS011;57507;43.056;0.150;2022-07-22T12:51:36;1.10;;;0.98;;
70138;SDS011;57507;43.056;0.150;2022-07-22T12:54:02;0.80;;;0.80;;
70138;SDS011;57507;43.056;0.150;2022-07-22T12:56:28;0.60;;;0.60;;
70138;SDS011;57507;43.056;0.150;2022-07-22T12:58:56;0.52;;;0.52;;
70138;SDS011;57507;43.056;0.150;2022-07-22T13:01:22;0.77;;;0.50;;
70138;SDS011;57507;43.056;0.150;2022-07-22T13:03:48;0.93;;;0.60;;
70138;SDS011;57507;43.056;0.150;2022-07-22T13:06:14;0.50;;;0.50;;
70138;SDS011;57507;43.056;0.150;2022-07-22T13:08:40;0.60;;;0.60;;
70138;SDS011;57507;43.056;0.150;2022-07-22T13:11:06;1.40;;;0.45;;
70138;SDS011;57507;43.056;0.150;2022-07-22T13:13:32;0.47;;;0.47;;
70138;SDS011;57507;43.056;0.150;2022-07-22T13:15:58;0.30;;;0.30;;
70138;SDS011;57507;43.056;0.150;2022-07-22T13:18:24;0.57;;;0.30;;
70138;SDS011;57507;43.056;0.150;2022-07-22T13:20:50;0.40;;;0.40;;
70138;SDS011;57507;43.056;0.150;2022-07-22T13:23:16;0.45;;;0.45;;
70138;SDS011;57507;43.056;0.150;2022-07-22T13:25:42;0.25;;;0.25;;
70138;SDS011;57507;43.056;0.150;2022-07-22T13:28:09;0.80;;;0.40;;
70138;SDS011;57507;43.056;0.150;2022-07-22T13:30:35;0.50;;;0.50;;
70138;SDS011;57507;43.056;0.150;2022-07-22T13:33:01;0.60;;;0.60;;
70138;SDS011;57507;43.056;0.150;2022-07-22T13:35:27;0.40;;;0.40;;
70138;SDS011;57507;43.056;0.150;2022-07-22T13:37:54;0.47;;;0.40;;
70138;SDS011;57507;43.056;0.150;2022-07-22T13:40:20;0.50;;;0.40;;
70138;SDS011;57507;43.056;0.150;2022-07-22T13:42:46;0.30;;;0.30;;
70138;SDS011;57507;43.056;0.150;2022-07-22T13:45:12;0.40;;;0.40;;
70138;SDS011;57507;43.056;0.150;2022-07-22T13:47:39;0.50;;;0.50;;
70138;SDS011;57507;43.056;0.150;2022-07-22T13:50:06;0.40;;;0.40;;
70138;SDS011;57507;43.056;0.150;2022-07-22T13:52:32;0.47;;;0.40;;
70138;SDS011;57507;43.056;0.150;2022-07-22T13:54:59;1.95;;;0.90;;
70138;SDS011;57507;43.056;0.150;2022-07-22T13:57:25;1.13;;;0.80;;
70138;SDS011;57507;43.056;0.150;2022-07-22T13:59:51;1.80;;;1.00;;
70138;SDS011;57507;43.056;0.150;2022-07-22T14:02:17;1.33;;;0.80;;
70138;SDS011;57507;43.056;0.150;2022-07-22T14:04:43;2.03;;;1.10;;
70138;SDS011;57507;43.056;0.150;2022-07-22T14:07:09;2.30;;;0.88;;
70138;SDS011;57507;43.056;0.150;2022-07-22T14:09:35;1.80;;;1.17;;
70138;SDS011;57507;43.056;0.150;2022-07-22T14:12:01;3.22;;;1.13;;
70138;SDS011;57507;43.056;0.150;2022-07-22T14:14:27;2.30;;;1.20;;
70138;SDS011;57507;43.056;0.150;2022-07-22T14:16:53;1.83;;;1.13;;
70138;SDS011;57507;43.056;0.150;2022-07-22T14:19:19;1.40;;;1.30;;
70138;SDS011;57507;43.056;0.150;2022-07-22T14:21:46;1.48;;;1.10;;
70138;SDS011;57507;43.056;0.150;2022-07-22T14:24:12;1.10;;;1.00;;
70138;SDS011;57507;43.056;0.150;2022-07-22T14:26:38;1.55;;;1.00;;
70138;SDS011;57507;43.056;0.150;2022-07-22T14:29:06;1.80;;;1.40;;
70138;SDS011;57507;43.056;0.150;2022-07-22T14:31:32;2.33;;;1.25;;
70138;SDS011;57507;43.056;0.150;2022-07-22T14:33:59;1.48;;;1.10;;
70138;SDS011;57507;43.056;0.150;2022-07-22T14:36:25;1.80;;;1.20;;
70138;SDS011;57507;43.056;0.150;2022-07-22T14:38:51;1.27;;;1.15;;
70138;SDS011;57507;43.056;0.150;2022-07-22T14:41:21;1.77;;;1.10;;
70138;SDS011;57507;43.056;0.150;2022-07-22T14:43:47;1.42;;;1.08;;
70138;SDS011;57507;43.056;0.150;2022-07-22T14:46:13;1.52;;;1.00;;
70138;SDS011;57507;43.056;0.150;2022-07-22T14:48:39;0.95;;;0.95;;
70138;SDS011;57507;43.056;0.150;2022-07-22T14:51:06;1.13;;;1.02;;
70138;SDS011;57507;43.056;0.150;2022-07-22T14:53:32;1.50;;;0.90;;
70138;SDS011;57507;43.056;0.150;2022-07-22T14:55:58;2.22;;;1.08;;
70138;SDS011;57507;43.056;0.150;2022-07-22T14:58:25;1.38;;;1.27;;
70138;SDS011;57507;43.056;0.150;2022-07-22T15:00:51;1.83;;;1.02;;
70138;SDS011;57507;43.056;0.150;2022-07-22T15:03:17;1.48;;;1.10;;